sensor_id;sensor_type;location;lat;lon;timestamp;P1;durP1;ratioP1;P2;durP2;ratioP2
29712;SDS011;16623;53.632;10.016;2022-08-19T00:01:39;26.58;;;16.58;;
29712;SDS011;16623;53.632;10.016;2022-08-19T00:04:11;23.38;;;15.30;;
29712;SDS011;16623;53.632;10.016;2022-08-19T00:06:39;26.30;;;16.55;;
29712;SDS011;16623;53.632;10.016;2022-08-19T00:09:07;24.33;;;16.35;;
29712;SDS011;16623;53.632;10.016;2022-08-19T00:11:35;23.23;;;14.93;;
29712;SDS011;16623;53.632;10.016;2022-08-19T00:14:02;25.88;;;17.20;;
29712;SDS011;16623;53.632;10.016;2022-08-19T00:16:29;28.30;;;16.90;;
29712;SDS011;16623;53.632;10.016;2022-08-19T00:18:55;25.52;;;16.52;;
29712;SDS011;16623;53.632;10.016;2022-08-19T00:21:21;28.45;;;16.33;;
29712;SDS011;16623;53.632;10.016;2022-08-19T00:23:48;23.90;;;16.17;;
29712;SDS011;16623;53.632;10.016;2022-08-19T00:26:14;23.70;;;16.95;;
29712;SDS011;16623;53.632;10.016;2022-08-19T00:28:39;25.10;;;16.13;;
29712;SDS011;16623;53.632;10.016;2022-08-19T00:31:06;25.80;;;16.48;;
29712;SDS011;16623;53.632;10.016;2022-08-19T00:33:33;27.27;;;17.45;;
29712;SDS011;16623;53.632;10.016;2022-08-19T00:36:00;29.15;;;18.90;;
29712;SDS011;16623;53.632;10.016;2022-08-19T00:38:27;25.63;;;16.58;;
29712;SDS011;16623;53.632;10.016;2022-08-19T00:40:52;29.20;;;16.52;;
29712;SDS011;16623;53.632;10.016;2022-08-19T00:43:19;25.48;;;16.77;;
29712;SDS011;16623;53.632;10.016;2022-08-19T00:45:46;30.60;;;17.63;;
29712;SDS011;16623;53.632;10.016;2022-08-19T00:48:14;26.77;;;19.60;;
29712;SDS011;16623;53.632;10.016;2022-08-19T00:50:41;24.48;;;16.88;;
29712;SDS011;16623;53.632;10.016;2022-08-19T00:53:08;28.23;;;18.75;;
29712;SDS011;16623;53.632;10.016;2022-08-19T00:55:36;32.30;;;17.27;;
29712;SDS011;16623;53.632;10.016;2022-08-19T00:58:06;28.50;;;18.48;;
29712;SDS011;16623;53.632;10.016;2022-08-19T01:00:35;30.90;;;18.30;;
29712;SDS011;16623;53.632;10.016;2022-08-19T01:03:02;28.27;;;17.63;;
29712;SDS011;16623;53.632;10.016;2022-08-19T01:05:35;29.67;;;17.02;;
29712;SDS011;16623;53.632;10.016;2022-08-19T01:08:02;28.73;;;19.15;;
29712;SDS011;16623;53.632;10.016;2022-08-19T01:10:35;30.52;;;17.70;;
29712;SDS011;16623;53.632;10.016;2022-08-19T01:13:04;27.77;;;17.02;;
29712;SDS011;16623;53.632;10.016;2022-08-19T01:15:31;30.92;;;18.17;;
29712;SDS011;16623;53.632;10.016;2022-08-19T01:17:59;30.83;;;17.33;;
29712;SDS011;16623;53.632;10.016;2022-08-19T01:20:30;26.58;;;15.90;;
29712;SDS011;16623;53.632;10.016;2022-08-19T01:22:56;26.20;;;17.48;;
29712;SDS011;16623;53.632;10.016;2022-08-19T01:25:28;27.48;;;17.92;;
29712;SDS011;16623;53.632;10.016;2022-08-19T01:27:57;34.30;;;19.60;;
29712;SDS011;16623;53.632;10.016;2022-08-19T01:30:25;38.75;;;20.05;;
29712;SDS011;16623;53.632;10.016;2022-08-19T01:32:54;46.03;;;21.10;;
29712;SDS011;16623;53.632;10.016;2022-08-19T01:35:21;36.90;;;20.75;;
29712;SDS011;16623;53.632;10.016;2022-08-19T01:37:56;32.53;;;19.40;;
29712;SDS011;16623;53.632;10.016;2022-08-19T01:40:25;35.72;;;21.05;;
29712;SDS011;16623;53.632;10.016;2022-08-19T01:42:56;34.85;;;20.20;;
29712;SDS011;16623;53.632;10.016;2022-08-19T01:45:23;34.67;;;20.10;;
29712;SDS011;16623;53.632;10.016;2022-08-19T01:47:51;33.05;;;20.55;;
29712;SDS011;16623;53.632;10.016;2022-08-19T01:50:17;35.85;;;19.98;;
29712;SDS011;16623;53.632;10.016;2022-08-19T01:52:43;37.20;;;21.42;;
29712;SDS011;16623;53.632;10.016;2022-08-19T01:55:14;41.60;;;22.73;;
29712;SDS011;16623;53.632;10.016;2022-08-19T01:57:42;39.08;;;20.10;;
29712;SDS011;16623;53.632;10.016;2022-08-19T02:00:13;39.72;;;20.80;;
29712;SDS011;16623;53.632;10.016;2022-08-19T02:02:41;43.53;;;22.73;;
29712;SDS011;16623;53.632;10.016;2022-08-19T02:05:07;42.20;;;21.42;;
29712;SDS011;16623;53.632;10.016;2022-08-19T02:07:33;42.55;;;21.27;;
29712;SDS011;16623;53.632;10.016;2022-08-19T02:10:02;42.60;;;22.15;;
29712;SDS011;16623;53.632;10.016;2022-08-19T02:12:30;45.28;;;22.45;;
29712;SDS011;16623;53.632;10.016;2022-08-19T02:14:56;40.90;;;21.73;;
29712;SDS011;16623;53.632;10.016;2022-08-19T02:17:21;40.25;;;21.58;;
29712;SDS011;16623;53.632;10.016;2022-08-19T02:19:47;38.47;;;19.85;;
29712;SDS011;16623;53.632;10.016;2022-08-19T02:22:13;47.42;;;20.88;;
29712;SDS011;16623;53.632;10.016;2022-08-19T02:24:39;35.50;;;20.60;;
29712;SDS011;16623;53.632;10.016;2022-08-19T02:27:05;42.20;;;22.65;;
29712;SDS011;16623;53.632;10.016;2022-08-19T02:29:30;43.28;;;22.05;;
29712;SDS011;16623;53.632;10.016;2022-08-19T02:31:56;47.83;;;23.75;;
29712;SDS011;16623;53.632;10.016;2022-08-19T02:34:22;49.90;;;25.27;;
29712;SDS011;16623;53.632;10.016;2022-08-19T02:36:50;45.20;;;24.15;;
29712;SDS011;16623;53.632;10.016;2022-08-19T02:39:16;53.33;;;25.70;;
29712;SDS011;16623;53.632;10.016;2022-08-19T02:41:42;50.30;;;25.48;;
29712;SDS011;16623;53.632;10.016;2022-08-19T02:44:07;54.47;;;24.27;;
29712;SDS011;16623;53.632;10.016;2022-08-19T02:46:33;54.83;;;25.92;;
29712;SDS011;16623;53.632;10.016;2022-08-19T02:49:02;56.00;;;27.05;;
29712;SDS011;16623;53.632;10.016;2022-08-19T02:51:32;52.15;;;24.73;;
29712;SDS011;16623;53.632;10.016;2022-08-19T02:54:04;53.50;;;23.45;;
29712;SDS011;16623;53.632;10.016;2022-08-19T02:56:31;59.28;;;26.20;;
29712;SDS011;16623;53.632;10.016;2022-08-19T02:59:04;54.58;;;25.80;;
29712;SDS011;16623;53.632;10.016;2022-08-19T03:01:33;44.97;;;23.83;;
29712;SDS011;16623;53.632;10.016;2022-08-19T03:04:01;65.03;;;26.58;;
29712;SDS011;16623;53.632;10.016;2022-08-19T03:06:29;50.17;;;24.55;;
29712;SDS011;16623;53.632;10.016;2022-08-19T03:08:56;52.63;;;25.35;;
29712;SDS011;16623;53.632;10.016;2022-08-19T03:11:29;56.75;;;25.48;;
29712;SDS011;16623;53.632;10.016;2022-08-19T03:13:55;55.38;;;24.67;;
29712;SDS011;16623;53.632;10.016;2022-08-19T03:16:23;62.22;;;25.45;;
29712;SDS011;16623;53.632;10.016;2022-08-19T03:18:51;41.50;;;22.50;;
29712;SDS011;16623;53.632;10.016;2022-08-19T03:21:19;45.22;;;23.48;;
29712;SDS011;16623;53.632;10.016;2022-08-19T03:23:50;42.80;;;21.45;;
29712;SDS011;16623;53.632;10.016;2022-08-19T03:26:19;46.42;;;23.02;;
29712;SDS011;16623;53.632;10.016;2022-08-19T03:28:44;39.85;;;22.70;;
29712;SDS011;16623;53.632;10.016;2022-08-19T03:31:14;47.28;;;22.27;;
29712;SDS011;16623;53.632;10.016;2022-08-19T03:33:42;46.70;;;22.42;;
29712;SDS011;16623;53.632;10.016;2022-08-19T03:36:11;39.88;;;21.13;;
29712;SDS011;16623;53.632;10.016;2022-08-19T03:38:42;46.58;;;21.90;;
29712;SDS011;16623;53.632;10.016;2022-08-19T03:41:11;37.88;;;19.30;;
29712;SDS011;16623;53.632;10.016;2022-08-19T03:43:41;44.25;;;19.65;;
29712;SDS011;16623;53.632;10.016;2022-08-19T03:46:08;41.70;;;20.13;;
29712;SDS011;16623;53.632;10.016;2022-08-19T03:48:36;49.63;;;21.30;;
29712;SDS011;16623;53.632;10.016;2022-08-19T03:51:03;45.78;;;20.63;;
29712;SDS011;16623;53.632;10.016;2022-08-19T03:53:30;38.85;;;20.70;;
29712;SDS011;16623;53.632;10.016;2022-08-19T03:55:57;41.75;;;19.85;;
29712;SDS011;16623;53.632;10.016;2022-08-19T03:58:25;38.83;;;20.02;;
29712;SDS011;16623;53.632;10.016;2022-08-19T04:00:53;37.83;;;20.27;;
29712;SDS011;16623;53.632;10.016;2022-08-19T04:03:20;38.75;;;20.20;;
29712;SDS011;16623;53.632;10.016;2022-08-19T04:05:46;39.10;;;20.60;;
29712;SDS011;16623;53.632;10.016;2022-08-19T04:08:12;45.92;;;21.55;;
29712;SDS011;16623;53.632;10.016;2022-08-19T04:10:38;46.42;;;21.45;;
29712;SDS011;16623;53.632;10.016;2022-08-19T04:13:05;43.97;;;21.77;;
29712;SDS011;16623;53.632;10.016;2022-08-19T04:15:32;46.85;;;22.52;;
29712;SDS011;16623;53.632;10.016;2022-08-19T04:18:03;44.58;;;23.30;;
29712;SDS011;16623;53.632;10.016;2022-08-19T04:20:31;48.78;;;25.60;;
29712;SDS011;16623;53.632;10.016;2022-08-19T04:22:56;48.55;;;25.30;;
29712;SDS011;16623;53.632;10.016;2022-08-19T04:25:22;54.13;;;26.33;;
29712;SDS011;16623;53.632;10.016;2022-08-19T04:27:47;43.78;;;24.75;;
29712;SDS011;16623;53.632;10.016;2022-08-19T04:30:14;52.33;;;26.77;;
29712;SDS011;16623;53.632;10.016;2022-08-19T04:32:39;56.33;;;26.60;;
29712;SDS011;16623;53.632;10.016;2022-08-19T04:35:08;52.28;;;26.55;;
29712;SDS011;16623;53.632;10.016;2022-08-19T04:37:34;59.45;;;28.05;;
29712;SDS011;16623;53.632;10.016;2022-08-19T04:39:59;52.55;;;28.40;;
29712;SDS011;16623;53.632;10.016;2022-08-19T04:42:43;60.20;;;26.90;;
29712;SDS011;16623;53.632;10.016;2022-08-19T04:45:13;60.78;;;30.83;;
29712;SDS011;16623;53.632;10.016;2022-08-19T04:47:40;59.70;;;30.70;;
29712;SDS011;16623;53.632;10.016;2022-08-19T04:50:07;63.15;;;30.55;;
29712;SDS011;16623;53.632;10.016;2022-08-19T04:52:35;60.90;;;29.27;;
29712;SDS011;16623;53.632;10.016;2022-08-19T04:55:01;61.30;;;31.52;;
29712;SDS011;16623;53.632;10.016;2022-08-19T04:57:28;64.88;;;30.88;;
29712;SDS011;16623;53.632;10.016;2022-08-19T04:59:54;65.85;;;31.90;;
29712;SDS011;16623;53.632;10.016;2022-08-19T05:02:20;72.78;;;31.17;;
29712;SDS011;16623;53.632;10.016;2022-08-19T05:04:48;62.30;;;30.52;;
29712;SDS011;16623;53.632;10.016;2022-08-19T05:07:14;67.72;;;31.13;;
29712;SDS011;16623;53.632;10.016;2022-08-19T05:09:39;63.03;;;30.55;;
29712;SDS011;16623;53.632;10.016;2022-08-19T05:12:05;55.20;;;30.67;;
29712;SDS011;16623;53.632;10.016;2022-08-19T05:14:31;64.35;;;30.17;;
29712;SDS011;16623;53.632;10.016;2022-08-19T05:16:56;61.03;;;29.90;;
29712;SDS011;16623;53.632;10.016;2022-08-19T05:19:22;60.00;;;32.38;;
29712;SDS011;16623;53.632;10.016;2022-08-19T05:22:06;61.90;;;31.17;;
29712;SDS011;16623;53.632;10.016;2022-08-19T05:24:50;65.53;;;32.60;;
29712;SDS011;16623;53.632;10.016;2022-08-19T05:27:16;70.90;;;32.28;;
29712;SDS011;16623;53.632;10.016;2022-08-19T05:29:41;66.32;;;32.42;;
29712;SDS011;16623;53.632;10.016;2022-08-19T05:32:07;62.63;;;31.13;;
29712;SDS011;16623;53.632;10.016;2022-08-19T05:34:35;59.40;;;31.00;;
29712;SDS011;16623;53.632;10.016;2022-08-19T05:37:03;58.58;;;30.65;;
29712;SDS011;16623;53.632;10.016;2022-08-19T05:39:30;65.25;;;30.30;;
29712;SDS011;16623;53.632;10.016;2022-08-19T05:41:59;65.28;;;33.45;;
29712;SDS011;16623;53.632;10.016;2022-08-19T05:44:27;54.55;;;30.58;;
29712;SDS011;16623;53.632;10.016;2022-08-19T05:46:57;49.13;;;27.98;;
29712;SDS011;16623;53.632;10.016;2022-08-19T05:49:27;65.82;;;31.20;;
29712;SDS011;16623;53.632;10.016;2022-08-19T05:51:53;64.88;;;29.75;;
29712;SDS011;16623;53.632;10.016;2022-08-19T05:54:21;56.78;;;30.63;;
29712;SDS011;16623;53.632;10.016;2022-08-19T05:56:48;50.42;;;28.88;;
29712;SDS011;16623;53.632;10.016;2022-08-19T05:59:15;58.75;;;29.67;;
29712;SDS011;16623;53.632;10.016;2022-08-19T06:01:42;54.35;;;28.80;;
29712;SDS011;16623;53.632;10.016;2022-08-19T06:04:10;57.25;;;29.83;;
29712;SDS011;16623;53.632;10.016;2022-08-19T06:06:35;55.65;;;27.13;;
29712;SDS011;16623;53.632;10.016;2022-08-19T06:09:02;59.50;;;30.50;;
29712;SDS011;16623;53.632;10.016;2022-08-19T06:11:33;57.50;;;28.70;;
29712;SDS011;16623;53.632;10.016;2022-08-19T06:14:03;60.15;;;29.27;;
29712;SDS011;16623;53.632;10.016;2022-08-19T06:16:37;54.40;;;29.10;;
29712;SDS011;16623;53.632;10.016;2022-08-19T06:19:12;54.45;;;27.60;;
29712;SDS011;16623;53.632;10.016;2022-08-19T06:21:41;65.20;;;27.90;;
29712;SDS011;16623;53.632;10.016;2022-08-19T06:24:08;68.90;;;29.85;;
29712;SDS011;16623;53.632;10.016;2022-08-19T06:26:36;65.82;;;31.73;;
29712;SDS011;16623;53.632;10.016;2022-08-19T06:29:04;73.03;;;31.90;;
29712;SDS011;16623;53.632;10.016;2022-08-19T06:31:31;60.15;;;30.88;;
29712;SDS011;16623;53.632;10.016;2022-08-19T06:34:01;67.53;;;30.17;;
29712;SDS011;16623;53.632;10.016;2022-08-19T06:36:33;68.18;;;30.25;;
29712;SDS011;16623;53.632;10.016;2022-08-19T06:39:02;64.20;;;30.90;;
29712;SDS011;16623;53.632;10.016;2022-08-19T06:41:35;70.88;;;31.23;;
29712;SDS011;16623;53.632;10.016;2022-08-19T06:44:03;57.17;;;30.48;;
29712;SDS011;16623;53.632;10.016;2022-08-19T06:46:30;69.55;;;31.02;;
29712;SDS011;16623;53.632;10.016;2022-08-19T06:48:56;70.10;;;31.50;;
29712;SDS011;16623;53.632;10.016;2022-08-19T06:51:22;74.28;;;31.65;;
29712;SDS011;16623;53.632;10.016;2022-08-19T06:53:49;64.55;;;32.13;;
29712;SDS011;16623;53.632;10.016;2022-08-19T06:56:18;60.53;;;29.67;;
29712;SDS011;16623;53.632;10.016;2022-08-19T06:58:55;66.05;;;31.13;;
29712;SDS011;16623;53.632;10.016;2022-08-19T07:01:20;70.50;;;32.20;;
29712;SDS011;16623;53.632;10.016;2022-08-19T07:03:46;63.35;;;30.50;;
29712;SDS011;16623;53.632;10.016;2022-08-19T07:06:13;60.88;;;29.58;;
29712;SDS011;16623;53.632;10.016;2022-08-19T07:08:42;76.78;;;32.67;;
29712;SDS011;16623;53.632;10.016;2022-08-19T07:11:10;62.35;;;27.52;;
29712;SDS011;16623;53.632;10.016;2022-08-19T07:13:37;58.72;;;30.80;;
29712;SDS011;16623;53.632;10.016;2022-08-19T07:16:05;60.22;;;30.88;;
29712;SDS011;16623;53.632;10.016;2022-08-19T07:18:32;56.72;;;28.73;;
29712;SDS011;16623;53.632;10.016;2022-08-19T07:21:03;59.75;;;29.50;;
29712;SDS011;16623;53.632;10.016;2022-08-19T07:23:29;59.70;;;29.40;;
29712;SDS011;16623;53.632;10.016;2022-08-19T07:25:55;54.15;;;28.88;;
29712;SDS011;16623;53.632;10.016;2022-08-19T07:28:21;58.92;;;29.92;;
29712;SDS011;16623;53.632;10.016;2022-08-19T07:30:47;58.50;;;27.70;;
29712;SDS011;16623;53.632;10.016;2022-08-19T07:33:14;55.38;;;28.55;;
29712;SDS011;16623;53.632;10.016;2022-08-19T07:35:40;56.33;;;27.27;;
29712;SDS011;16623;53.632;10.016;2022-08-19T07:38:06;48.97;;;26.10;;
29712;SDS011;16623;53.632;10.016;2022-08-19T07:40:32;55.95;;;28.75;;
29712;SDS011;16623;53.632;10.016;2022-08-19T07:42:57;53.63;;;25.85;;
29712;SDS011;16623;53.632;10.016;2022-08-19T07:45:23;49.65;;;26.10;;
29712;SDS011;16623;53.632;10.016;2022-08-19T07:47:49;52.78;;;25.88;;
29712;SDS011;16623;53.632;10.016;2022-08-19T07:50:15;50.95;;;25.73;;
29712;SDS011;16623;53.632;10.016;2022-08-19T07:52:40;48.95;;;26.15;;
29712;SDS011;16623;53.632;10.016;2022-08-19T07:55:09;52.50;;;26.88;;
29712;SDS011;16623;53.632;10.016;2022-08-19T07:57:35;48.53;;;24.50;;
29712;SDS011;16623;53.632;10.016;2022-08-19T08:00:02;43.15;;;23.38;;
29712;SDS011;16623;53.632;10.016;2022-08-19T08:02:29;47.88;;;23.98;;
29712;SDS011;16623;53.632;10.016;2022-08-19T08:04:55;50.13;;;24.60;;
29712;SDS011;16623;53.632;10.016;2022-08-19T08:07:39;45.08;;;23.15;;
29712;SDS011;16623;53.632;10.016;2022-08-19T08:10:23;46.00;;;21.83;;
29712;SDS011;16623;53.632;10.016;2022-08-19T08:12:49;39.13;;;20.30;;
29712;SDS011;16623;53.632;10.016;2022-08-19T08:15:16;37.85;;;21.70;;
29712;SDS011;16623;53.632;10.016;2022-08-19T08:17:43;45.35;;;22.15;;
29712;SDS011;16623;53.632;10.016;2022-08-19T08:20:09;36.83;;;20.75;;
29712;SDS011;16623;53.632;10.016;2022-08-19T08:22:36;37.00;;;20.50;;
29712;SDS011;16623;53.632;10.016;2022-08-19T08:25:21;39.58;;;19.77;;
29712;SDS011;16623;53.632;10.016;2022-08-19T08:27:48;32.15;;;19.00;;
29712;SDS011;16623;53.632;10.016;2022-08-19T08:30:22;33.97;;;19.88;;
29712;SDS011;16623;53.632;10.016;2022-08-19T08:35:17;32.85;;;18.80;;
29712;SDS011;16623;53.632;10.016;2022-08-19T08:37:47;31.40;;;16.83;;
29712;SDS011;16623;53.632;10.016;2022-08-19T08:42:55;31.67;;;17.77;;
29712;SDS011;16623;53.632;10.016;2022-08-19T08:45:47;33.35;;;18.15;;
29712;SDS011;16623;53.632;10.016;2022-08-19T08:48:38;38.60;;;17.95;;
29712;SDS011;16623;53.632;10.016;2022-08-19T08:51:10;35.25;;;17.48;;
29712;SDS011;16623;53.632;10.016;2022-08-19T08:53:40;40.53;;;18.95;;
29712;SDS011;16623;53.632;10.016;2022-08-19T08:56:09;30.48;;;17.27;;
29712;SDS011;16623;53.632;10.016;2022-08-19T09:01:27;28.02;;;16.67;;
29712;SDS011;16623;53.632;10.016;2022-08-19T09:03:52;33.53;;;17.70;;
29712;SDS011;16623;53.632;10.016;2022-08-19T09:06:38;26.95;;;15.55;;
29712;SDS011;16623;53.632;10.016;2022-08-19T09:11:48;36.45;;;17.02;;
29712;SDS011;16623;53.632;10.016;2022-08-19T09:14:32;37.42;;;18.83;;
29712;SDS011;16623;53.632;10.016;2022-08-19T09:17:07;29.65;;;16.48;;
29712;SDS011;16623;53.632;10.016;2022-08-19T09:19:46;35.45;;;18.25;;
29712;SDS011;16623;53.632;10.016;2022-08-19T09:22:15;25.83;;;15.90;;
29712;SDS011;16623;53.632;10.016;2022-08-19T09:24:41;29.38;;;17.77;;
29712;SDS011;16623;53.632;10.016;2022-08-19T09:27:07;32.92;;;17.20;;
29712;SDS011;16623;53.632;10.016;2022-08-19T09:29:32;31.52;;;17.90;;
29712;SDS011;16623;53.632;10.016;2022-08-19T09:32:00;30.15;;;18.13;;
29712;SDS011;16623;53.632;10.016;2022-08-19T09:34:25;33.70;;;17.88;;
29712;SDS011;16623;53.632;10.016;2022-08-19T09:36:51;36.72;;;18.25;;
29712;SDS011;16623;53.632;10.016;2022-08-19T09:39:18;31.80;;;18.30;;
29712;SDS011;16623;53.632;10.016;2022-08-19T09:41:43;31.50;;;17.73;;
29712;SDS011;16623;53.632;10.016;2022-08-19T09:44:09;35.08;;;16.95;;
29712;SDS011;16623;53.632;10.016;2022-08-19T09:46:36;29.77;;;15.57;;
29712;SDS011;16623;53.632;10.016;2022-08-19T09:49:02;27.85;;;16.63;;
29712;SDS011;16623;53.632;10.016;2022-08-19T09:51:31;29.48;;;15.18;;
29712;SDS011;16623;53.632;10.016;2022-08-19T09:54:02;22.98;;;14.70;;
29712;SDS011;16623;53.632;10.016;2022-08-19T09:56:28;33.70;;;15.80;;
29712;SDS011;16623;53.632;10.016;2022-08-19T09:58:57;28.38;;;16.42;;
29712;SDS011;16623;53.632;10.016;2022-08-19T10:01:25;26.08;;;14.48;;
29712;SDS011;16623;53.632;10.016;2022-08-19T10:03:55;26.10;;;13.82;;
29712;SDS011;16623;53.632;10.016;2022-08-19T10:06:22;18.25;;;12.25;;
29712;SDS011;16623;53.632;10.016;2022-08-19T10:08:51;26.17;;;14.02;;
29712;SDS011;16623;53.632;10.016;2022-08-19T10:11:18;21.75;;;13.05;;
29712;SDS011;16623;53.632;10.016;2022-08-19T10:13:45;19.55;;;13.68;;
29712;SDS011;16623;53.632;10.016;2022-08-19T10:16:13;28.27;;;13.40;;
29712;SDS011;16623;53.632;10.016;2022-08-19T10:18:40;28.45;;;13.98;;
29712;SDS011;16623;53.632;10.016;2022-08-19T10:21:10;24.25;;;14.13;;
29712;SDS011;16623;53.632;10.016;2022-08-19T10:23:40;26.27;;;15.15;;
29712;SDS011;16623;53.632;10.016;2022-08-19T10:26:15;26.60;;;15.27;;
29712;SDS011;16623;53.632;10.016;2022-08-19T10:28:43;28.65;;;14.75;;
29712;SDS011;16623;53.632;10.016;2022-08-19T10:31:11;30.10;;;15.07;;
29712;SDS011;16623;53.632;10.016;2022-08-19T10:33:44;28.63;;;15.70;;
29712;SDS011;16623;53.632;10.016;2022-08-19T10:36:14;26.95;;;16.45;;
29712;SDS011;16623;53.632;10.016;2022-08-19T10:38:49;26.45;;;16.17;;
29712;SDS011;16623;53.632;10.016;2022-08-19T10:41:25;38.05;;;16.75;;
29712;SDS011;16623;53.632;10.016;2022-08-19T10:43:58;27.27;;;15.60;;
29712;SDS011;16623;53.632;10.016;2022-08-19T10:46:33;26.65;;;15.90;;
29712;SDS011;16623;53.632;10.016;2022-08-19T10:49:01;28.05;;;18.10;;
29712;SDS011;16623;53.632;10.016;2022-08-19T10:51:27;26.63;;;16.65;;
29712;SDS011;16623;53.632;10.016;2022-08-19T10:54:13;38.65;;;19.20;;
29712;SDS011;16623;53.632;10.016;2022-08-19T10:56:46;34.75;;;17.42;;
29712;SDS011;16623;53.632;10.016;2022-08-19T10:59:18;37.13;;;18.65;;
29712;SDS011;16623;53.632;10.016;2022-08-19T11:01:46;27.98;;;16.73;;
29712;SDS011;16623;53.632;10.016;2022-08-19T11:04:13;29.85;;;17.30;;
29712;SDS011;16623;53.632;10.016;2022-08-19T11:06:43;28.90;;;17.65;;
29712;SDS011;16623;53.632;10.016;2022-08-19T11:09:20;32.97;;;17.70;;
29712;SDS011;16623;53.632;10.016;2022-08-19T11:11:52;31.02;;;16.92;;
29712;SDS011;16623;53.632;10.016;2022-08-19T11:14:19;25.92;;;15.75;;
29712;SDS011;16623;53.632;10.016;2022-08-19T11:16:45;22.63;;;15.75;;
29712;SDS011;16623;53.632;10.016;2022-08-19T11:19:15;22.40;;;15.88;;
29712;SDS011;16623;53.632;10.016;2022-08-19T11:21:45;24.98;;;15.45;;
29712;SDS011;16623;53.632;10.016;2022-08-19T11:24:18;27.23;;;17.20;;
29712;SDS011;16623;53.632;10.016;2022-08-19T11:26:45;29.95;;;17.02;;
29712;SDS011;16623;53.632;10.016;2022-08-19T11:29:14;25.77;;;15.18;;
29712;SDS011;16623;53.632;10.016;2022-08-19T11:31:43;29.15;;;16.52;;
29712;SDS011;16623;53.632;10.016;2022-08-19T11:34:13;21.25;;;13.32;;
29712;SDS011;16623;53.632;10.016;2022-08-19T11:36:44;23.85;;;14.02;;
29712;SDS011;16623;53.632;10.016;2022-08-19T11:39:13;25.80;;;17.05;;
29712;SDS011;16623;53.632;10.016;2022-08-19T11:41:40;23.98;;;15.20;;
29712;SDS011;16623;53.632;10.016;2022-08-19T11:44:06;22.08;;;14.65;;
29712;SDS011;16623;53.632;10.016;2022-08-19T11:46:35;23.13;;;14.68;;
29712;SDS011;16623;53.632;10.016;2022-08-19T11:49:03;26.48;;;13.63;;
29712;SDS011;16623;53.632;10.016;2022-08-19T11:51:30;21.17;;;14.02;;
29712;SDS011;16623;53.632;10.016;2022-08-19T11:53:57;18.92;;;12.57;;
29712;SDS011;16623;53.632;10.016;2022-08-19T11:56:24;18.05;;;13.05;;
29712;SDS011;16623;53.632;10.016;2022-08-19T11:58:50;18.33;;;12.27;;
29712;SDS011;16623;53.632;10.016;2022-08-19T12:01:19;18.60;;;13.52;;
29712;SDS011;16623;53.632;10.016;2022-08-19T12:03:48;20.67;;;12.13;;
29712;SDS011;16623;53.632;10.016;2022-08-19T12:06:19;18.33;;;10.80;;
29712;SDS011;16623;53.632;10.016;2022-08-19T12:08:56;17.88;;;12.02;;
29712;SDS011;16623;53.632;10.016;2022-08-19T12:11:23;19.23;;;12.98;;
29712;SDS011;16623;53.632;10.016;2022-08-19T12:13:49;17.05;;;11.32;;
29712;SDS011;16623;53.632;10.016;2022-08-19T12:16:19;20.13;;;11.75;;
29712;SDS011;16623;53.632;10.016;2022-08-19T12:18:46;17.20;;;9.93;;
29712;SDS011;16623;53.632;10.016;2022-08-19T12:21:16;17.23;;;10.70;;
29712;SDS011;16623;53.632;10.016;2022-08-19T12:23:46;25.55;;;11.93;;
29712;SDS011;16623;53.632;10.016;2022-08-19T12:26:12;18.60;;;11.38;;
29712;SDS011;16623;53.632;10.016;2022-08-19T12:28:38;19.48;;;9.85;;
29712;SDS011;16623;53.632;10.016;2022-08-19T12:31:04;15.77;;;10.80;;
29712;SDS011;16623;53.632;10.016;2022-08-19T12:33:30;17.45;;;11.55;;
29712;SDS011;16623;53.632;10.016;2022-08-19T12:36:00;13.73;;;10.35;;
29712;SDS011;16623;53.632;10.016;2022-08-19T12:38:30;15.07;;;11.32;;
29712;SDS011;16623;53.632;10.016;2022-08-19T12:40:57;18.83;;;12.23;;
29712;SDS011;16623;53.632;10.016;2022-08-19T12:43:22;15.05;;;11.60;;
29712;SDS011;16623;53.632;10.016;2022-08-19T12:45:48;14.95;;;12.38;;
29712;SDS011;16623;53.632;10.016;2022-08-19T12:48:21;18.80;;;12.63;;
29712;SDS011;16623;53.632;10.016;2022-08-19T12:50:47;17.25;;;11.55;;
29712;SDS011;16623;53.632;10.016;2022-08-19T12:53:13;20.50;;;11.45;;
29712;SDS011;16623;53.632;10.016;2022-08-19T12:55:39;15.75;;;11.30;;
29712;SDS011;16623;53.632;10.016;2022-08-19T12:58:05;24.50;;;12.95;;
29712;SDS011;16623;53.632;10.016;2022-08-19T13:00:31;18.23;;;11.20;;
29712;SDS011;16623;53.632;10.016;2022-08-19T13:02:58;16.48;;;11.80;;
29712;SDS011;16623;53.632;10.016;2022-08-19T13:05:25;17.52;;;11.80;;
29712;SDS011;16623;53.632;10.016;2022-08-19T13:07:55;17.00;;;11.05;;
29712;SDS011;16623;53.632;10.016;2022-08-19T13:10:22;15.75;;;11.23;;
29712;SDS011;16623;53.632;10.016;2022-08-19T13:12:50;14.77;;;10.10;;
29712;SDS011;16623;53.632;10.016;2022-08-19T13:15:17;12.23;;;10.15;;
29712;SDS011;16623;53.632;10.016;2022-08-19T13:17:48;13.98;;;10.32;;
29712;SDS011;16623;53.632;10.016;2022-08-19T13:20:15;17.65;;;10.55;;
29712;SDS011;16623;53.632;10.016;2022-08-19T13:22:43;12.57;;;10.10;;
29712;SDS011;16623;53.632;10.016;2022-08-19T13:25:10;18.52;;;11.52;;
29712;SDS011;16623;53.632;10.016;2022-08-19T13:27:37;13.85;;;11.00;;
29712;SDS011;16623;53.632;10.016;2022-08-19T13:30:04;20.42;;;11.68;;
29712;SDS011;16623;53.632;10.016;2022-08-19T13:32:50;16.05;;;11.18;;
29712;SDS011;16623;53.632;10.016;2022-08-19T13:35:34;14.57;;;10.80;;
29712;SDS011;16623;53.632;10.016;2022-08-19T13:38:00;17.38;;;10.68;;
29712;SDS011;16623;53.632;10.016;2022-08-19T13:40:30;14.02;;;10.25;;
29712;SDS011;16623;53.632;10.016;2022-08-19T13:42:58;15.70;;;10.70;;
29712;SDS011;16623;53.632;10.016;2022-08-19T13:45:25;14.35;;;10.30;;
29712;SDS011;16623;53.632;10.016;2022-08-19T13:47:54;16.80;;;10.63;;
29712;SDS011;16623;53.632;10.016;2022-08-19T13:50:23;13.95;;;9.85;;
29712;SDS011;16623;53.632;10.016;2022-08-19T13:52:52;14.45;;;10.57;;
29712;SDS011;16623;53.632;10.016;2022-08-19T13:55:18;12.02;;;10.15;;
29712;SDS011;16623;53.632;10.016;2022-08-19T13:57:44;12.55;;;10.75;;
29712;SDS011;16623;53.632;10.016;2022-08-19T14:00:11;12.07;;;9.30;;
29712;SDS011;16623;53.632;10.016;2022-08-19T14:02:40;14.10;;;10.55;;
29712;SDS011;16623;53.632;10.016;2022-08-19T14:05:07;11.55;;;9.25;;
29712;SDS011;16623;53.632;10.016;2022-08-19T14:07:35;15.00;;;9.80;;
29712;SDS011;16623;53.632;10.016;2022-08-19T14:10:01;16.30;;;10.20;;
29712;SDS011;16623;53.632;10.016;2022-08-19T14:12:28;13.65;;;10.10;;
29712;SDS011;16623;53.632;10.016;2022-08-19T14:14:53;10.65;;;8.90;;
29712;SDS011;16623;53.632;10.016;2022-08-19T14:17:19;13.95;;;11.68;;
29712;SDS011;16623;53.632;10.016;2022-08-19T14:19:45;16.83;;;10.80;;
29712;SDS011;16623;53.632;10.016;2022-08-19T14:22:10;16.02;;;11.95;;
29712;SDS011;16623;53.632;10.016;2022-08-19T14:24:39;19.08;;;11.70;;
29712;SDS011;16623;53.632;10.016;2022-08-19T14:27:05;16.90;;;11.80;;